Terminal Aerodrome Forecast
Issued by NWS

Home | Current Version | Previous Version | Text Only | Print | Product List | Glossary On
Versions: 1 2 3 4 5 6 7 8 9 10 11 12 13 14 15 16
000
FTAK31 PAFA 250537
TAFAOT
TAF
PAOT 250537Z 2506/2606 09010KT P6SM SCT100 SCT200
      TEMPO 2508/2512 BKN100
     FM252000 11009KT P6SM BKN100 BKN250
     FM260100 12007KT P6SM SCT100 SCT250=

USA.gov is the U.S. government's official web portal to all federal, state and local government web resources and services.